createdAt,value
2018-08-24T00:00:44.393Z,14.13
2018-08-24T00:03:15.269Z,11.22
2018-08-24T00:05:45.349Z,17.37
2018-08-24T00:08:16.385Z,16.15
2018-08-24T00:10:47.109Z,13.32
2018-08-24T00:13:17.188Z,12.50
2018-08-24T00:15:48.228Z,18.35
2018-08-24T00:18:19.208Z,12.13
2018-08-24T00:20:49.874Z,11.40
2018-08-24T00:23:20.385Z,16.05
2018-08-24T00:25:52.009Z,18.62
2018-08-24T00:28:22.466Z,20.17
2018-08-24T00:30:53.507Z,12.90
2018-08-24T00:33:24.483Z,16.85
2018-08-24T00:35:54.946Z,18.87
2018-08-24T00:38:26.310Z,8.98
2018-08-24T00:40:57.346Z,12.53
2018-08-24T00:43:27.849Z,15.43
2018-08-24T00:45:58.909Z,9.43
2018-08-24T00:48:29.508Z,14.07
2018-08-24T00:51:00.172Z,17.87
2018-08-24T00:53:30.610Z,12.20
2018-08-24T00:56:00.709Z,14.13
2018-08-24T00:58:31.373Z,12.53
2018-08-24T01:01:02.148Z,10.10
2018-08-24T01:03:33.517Z,13.45
2018-08-24T01:06:03.234Z,11.33
2018-08-24T01:08:34.306Z,13.32
2018-08-24T01:11:05.030Z,12.53
2018-08-24T01:13:34.702Z,10.60
2018-08-24T01:16:05.511Z,10.95
2018-08-24T01:18:41.361Z,13.90
2018-08-24T01:21:11.428Z,11.88
2018-08-24T01:23:42.480Z,16.45
2018-08-24T01:26:14.528Z,15.35
2018-08-24T01:28:45.510Z,9.63
2018-08-24T01:31:15.843Z,14.78
2018-08-24T01:33:46.244Z,11.80
2018-08-24T01:36:17.987Z,11.85
2018-08-24T01:38:49.637Z,13.28
2018-08-24T01:41:20.366Z,12.43
2018-08-24T01:43:51.434Z,11.20
2018-08-24T01:46:21.831Z,11.53
2018-08-24T01:48:52.552Z,13.98
2018-08-24T01:51:24.225Z,16.97
2018-08-24T01:53:54.894Z,16.17
2018-08-24T01:56:25.921Z,13.90
2018-08-24T01:58:56.673Z,9.50
2018-08-24T02:01:27.748Z,10.63
2018-08-24T02:03:58.909Z,12.40
2018-08-24T02:06:30.127Z,9.83
2018-08-24T02:09:01.840Z,14.55
2018-08-24T02:11:34.473Z,10.50
2018-08-24T02:14:10.583Z,18.17
2018-08-24T02:16:42.945Z,12.35
2018-08-24T02:19:17.190Z,9.95
2018-08-24T02:21:53.031Z,11.88
2018-08-24T02:24:23.748Z,12.88
2018-08-24T02:26:54.147Z,12.58
2018-08-24T02:29:24.815Z,11.25
2018-08-24T02:31:55.308Z,11.08
2018-08-24T02:34:26.317Z,15.08
2018-08-24T02:36:56.974Z,12.93
2018-08-24T02:39:28.067Z,16.90
2018-08-24T02:41:58.468Z,14.10
2018-08-24T02:44:29.571Z,12.53
2018-08-24T02:47:00.502Z,10.60
2018-08-24T02:49:30.951Z,15.40
2018-08-24T02:52:01.615Z,9.78
2018-08-24T02:54:32.863Z,8.90
2018-08-24T02:57:03.049Z,12.93
2018-08-24T02:59:33.829Z,15.40
2018-08-24T03:02:04.546Z,13.15
2018-08-24T03:04:35.284Z,12.88
2018-08-24T03:07:05.986Z,18.50
2018-08-24T03:09:36.322Z,20.05
2018-08-24T03:12:07.105Z,13.88
2018-08-24T03:14:38.687Z,11.68
2018-08-24T03:17:13.989Z,11.10
2018-08-24T03:19:44.964Z,19.82
2018-08-24T03:22:15.747Z,19.90
2018-08-24T03:24:47.427Z,27.58
2018-08-24T03:27:17.046Z,15.72
2018-08-24T03:29:48.230Z,17.48
2018-08-24T03:32:18.885Z,13.65
2018-08-24T03:34:50.632Z,10.30
2018-08-24T03:37:21.255Z,16.50
2018-08-24T03:39:52.014Z,14.23
2018-08-24T03:42:23.241Z,12.63
2018-08-24T03:44:53.188Z,12.47
2018-08-24T03:47:23.853Z,17.57
2018-08-24T03:49:53.988Z,13.55
2018-08-24T03:52:24.337Z,14.55
2018-08-24T03:54:55.427Z,11.73
2018-08-24T03:57:25.825Z,12.68
2018-08-24T03:59:56.228Z,15.25
2018-08-24T04:02:28.230Z,11.22
2018-08-24T04:04:58.955Z,21.20
2018-08-24T04:07:29.648Z,15.90
2018-08-24T04:10:00.400Z,15.25
2018-08-24T04:12:31.124Z,15.10
2018-08-24T04:15:01.831Z,14.18
2018-08-24T04:17:37.350Z,15.00
2018-08-24T04:20:08.708Z,15.90
2018-08-24T04:22:39.389Z,13.40
2018-08-24T04:25:10.787Z,12.75
2018-08-24T04:27:42.217Z,13.28
2018-08-24T04:30:13.193Z,13.50
2018-08-24T04:32:44.545Z,18.52
2018-08-24T04:35:14.957Z,11.08
2018-08-24T04:37:46.055Z,14.43
2018-08-24T04:40:17.230Z,13.25
2018-08-24T04:42:48.335Z,16.95
2018-08-24T04:45:18.790Z,14.47
2018-08-24T04:47:50.475Z,12.60
2018-08-24T04:50:22.153Z,16.73
2018-08-24T04:52:54.470Z,12.28
2018-08-24T04:55:25.195Z,11.90
2018-08-24T04:57:55.265Z,13.43
2018-08-24T05:00:26.311Z,14.70
2018-08-24T05:02:57.349Z,15.00
2018-08-24T05:05:28.035Z,12.73
2018-08-24T05:07:59.871Z,11.00
2018-08-24T05:10:31.751Z,12.55
2018-08-24T05:13:02.437Z,12.68
2018-08-24T05:15:33.995Z,19.10
2018-08-24T05:18:05.181Z,11.95
2018-08-24T05:20:35.865Z,12.95
2018-08-24T05:23:07.589Z,13.25
2018-08-24T05:25:37.995Z,18.37
2018-08-24T05:28:08.768Z,14.45
2018-08-24T05:30:39.428Z,21.40
2018-08-24T05:33:11.346Z,18.80
2018-08-24T05:35:42.529Z,15.35
2018-08-24T05:38:12.804Z,21.68
2018-08-24T05:40:43.225Z,21.62
2018-08-24T05:43:13.998Z,17.40
2018-08-24T05:45:44.399Z,19.80
2018-08-24T05:48:15.134Z,19.95
2018-08-24T05:50:45.711Z,18.35
2018-08-24T05:53:16.764Z,22.10
2018-08-24T05:55:47.185Z,13.10
2018-08-24T05:58:17.873Z,23.55
2018-08-24T06:00:48.289Z,25.27
2018-08-24T06:03:19.000Z,20.50
2018-08-24T06:05:54.571Z,21.10
2018-08-24T06:08:24.889Z,28.02
2018-08-24T06:10:55.379Z,11.22
2018-08-24T06:13:26.369Z,10.48
2018-08-24T06:15:57.147Z,20.32
2018-08-24T06:18:28.750Z,15.45
2018-08-24T06:20:59.469Z,14.50
2018-08-24T06:23:30.187Z,11.85
2018-08-24T06:26:00.911Z,18.85
2018-08-24T06:28:31.053Z,14.55
2018-08-24T06:31:02.410Z,18.37
2018-08-24T06:33:32.749Z,14.43
2018-08-24T06:36:03.210Z,16.75
2018-08-24T06:38:33.933Z,10.00
2018-08-24T06:41:03.897Z,9.55
2018-08-24T06:43:34.686Z,12.10
2018-08-24T06:46:05.392Z,15.18
2018-08-24T06:48:35.796Z,13.40
2018-08-24T06:51:06.513Z,14.30
2018-08-24T06:53:36.952Z,14.18
2018-08-24T06:56:06.970Z,14.95
2018-08-24T06:58:37.327Z,13.20
2018-08-24T07:01:07.794Z,13.30
2018-08-24T07:03:37.883Z,10.82
2018-08-24T07:06:07.922Z,14.70
2018-08-24T07:08:38.673Z,9.75
2018-08-24T07:11:09.383Z,11.97
2018-08-24T07:13:39.243Z,7.85
2018-08-24T07:16:09.079Z,13.68
2018-08-24T07:18:39.198Z,11.30
2018-08-24T07:21:09.505Z,11.38
2018-08-24T07:23:39.455Z,8.35
2018-08-24T07:26:09.144Z,10.68
2018-08-24T07:28:39.535Z,12.30
2018-08-24T07:31:09.854Z,8.28
2018-08-24T07:33:39.954Z,10.00
2018-08-24T07:36:10.467Z,31.12
2018-08-24T07:38:40.266Z,17.02
2018-08-24T07:41:11.563Z,20.15
2018-08-24T07:43:41.518Z,13.83
2018-08-24T07:46:11.359Z,34.63
2018-08-24T07:48:42.191Z,41.33
2018-08-24T07:51:12.277Z,34.73
2018-08-24T07:53:42.990Z,20.55
2018-08-24T07:56:13.729Z,17.70
2018-08-24T07:58:44.433Z,18.73
2018-08-24T08:01:14.871Z,19.27
2018-08-24T08:03:45.290Z,15.55
2018-08-24T08:06:16.335Z,15.03
2018-08-24T08:08:47.322Z,18.10
2018-08-24T08:11:17.728Z,13.75
2018-08-24T08:13:48.119Z,14.58
2018-08-24T08:16:18.512Z,12.07
2018-08-24T08:18:49.238Z,15.55
2018-08-24T08:21:19.953Z,11.63
2018-08-24T08:23:50.383Z,11.53
2018-08-24T08:26:20.755Z,12.85
2018-08-24T08:28:51.160Z,12.50
2018-08-24T08:31:21.883Z,10.70
2018-08-24T08:33:52.284Z,21.37
2018-08-24T08:36:22.025Z,45.48
2018-08-24T08:38:51.979Z,24.67
2018-08-24T08:41:21.835Z,30.77
2018-08-24T08:43:52.819Z,25.62
2018-08-24T08:46:22.790Z,17.20
2018-08-24T08:48:53.523Z,19.80
2018-08-24T08:51:23.446Z,10.10
2018-08-24T08:53:53.404Z,13.70
2018-08-24T08:56:23.425Z,19.20
2018-08-24T08:58:53.262Z,13.05
2018-08-24T09:01:23.418Z,15.10
2018-08-24T09:03:53.316Z,9.80
2018-08-24T09:06:23.365Z,11.80
2018-08-24T09:08:54.505Z,12.90
2018-08-24T09:11:24.474Z,10.65
2018-08-24T09:13:54.409Z,7.75
2018-08-24T09:16:25.294Z,9.50
2018-08-24T09:19:00.434Z,8.53
2018-08-24T09:21:35.325Z,7.35
2018-08-24T09:25:12.932Z,14.28
2018-08-24T09:27:48.502Z,6.15
2018-08-24T09:30:19.803Z,11.93
2018-08-24T09:32:50.333Z,7.03
2018-08-24T09:35:20.079Z,7.33
2018-08-24T09:37:49.948Z,5.95
2018-08-24T09:40:23.906Z,8.50
2018-08-24T09:43:07.674Z,6.25
2018-08-24T09:45:38.197Z,8.83
2018-08-24T09:48:13.815Z,10.48
2018-08-24T09:50:49.887Z,6.58
2018-08-24T09:53:25.398Z,6.15
2018-08-24T09:55:55.408Z,9.43
2018-08-24T09:58:25.345Z,7.80
2018-08-24T10:01:01.677Z,6.03
2018-08-24T10:03:36.346Z,6.95
2018-08-24T10:06:11.210Z,7.40
2018-08-24T10:08:46.058Z,5.97
2018-08-24T10:11:16.123Z,7.37
2018-08-24T10:13:46.951Z,9.13
2018-08-24T10:16:17.751Z,9.58
2018-08-24T10:18:48.654Z,11.73
2018-08-24T10:21:18.988Z,8.68
2018-08-24T10:23:50.027Z,9.05
2018-08-24T10:26:20.492Z,7.70
2018-08-24T10:28:51.467Z,8.80
2018-08-24T10:31:21.558Z,9.50
2018-08-24T10:33:52.136Z,53.98
2018-08-24T10:36:22.048Z,8.10
2018-08-24T10:38:53.769Z,11.68
2018-08-24T10:41:25.132Z,6.53
2018-08-24T10:43:54.976Z,10.40
2018-08-24T10:46:24.895Z,6.15
2018-08-24T10:48:55.205Z,10.90
2018-08-24T10:51:25.104Z,7.67
2018-08-24T10:53:55.270Z,7.87
2018-08-24T10:56:25.016Z,8.93
2018-08-24T10:58:55.636Z,9.13
2018-08-24T11:01:26.678Z,9.78
2018-08-24T11:03:57.229Z,58.02
2018-08-24T11:06:28.113Z,10.98
2018-08-24T11:08:58.579Z,6.60
2018-08-24T11:11:29.066Z,9.93
2018-08-24T11:13:59.643Z,8.48
2018-08-24T11:16:30.022Z,8.65
2018-08-24T11:19:00.435Z,10.85
2018-08-24T11:21:31.103Z,5.15
2018-08-24T11:24:01.932Z,13.48
2018-08-24T11:26:32.282Z,9.20
2018-08-24T11:29:02.734Z,7.67
2018-08-24T11:31:33.080Z,9.58
2018-08-24T11:34:03.554Z,7.00
2018-08-24T11:36:33.875Z,11.57
2018-08-24T11:39:05.241Z,11.08
2018-08-24T11:41:35.693Z,11.40
2018-08-24T11:44:06.741Z,8.20
2018-08-24T11:46:37.390Z,7.28
2018-08-24T11:49:08.076Z,10.65
2018-08-24T11:51:38.892Z,18.85
2018-08-24T11:54:09.572Z,5.65
2018-08-24T11:56:40.278Z,11.30
2018-08-24T11:59:10.670Z,10.23
2018-08-24T12:01:41.390Z,8.65
2018-08-24T12:04:11.801Z,6.35
2018-08-24T12:06:42.581Z,10.50
2018-08-24T12:09:13.294Z,7.42
2018-08-24T12:11:43.962Z,7.67
2018-08-24T12:14:14.680Z,7.25
2018-08-24T12:16:45.725Z,9.35
2018-08-24T12:19:17.454Z,4.90
2018-08-24T12:21:48.434Z,5.97
2018-08-24T12:24:18.894Z,5.97
2018-08-24T12:26:49.233Z,19.17
2018-08-24T12:29:19.963Z,8.05
2018-08-24T12:31:50.679Z,12.68
2018-08-24T12:34:22.039Z,10.00
2018-08-24T12:36:52.761Z,7.08
2018-08-24T12:39:24.124Z,6.67
2018-08-24T12:41:54.847Z,5.42
2018-08-24T12:44:25.238Z,10.85
2018-08-24T12:46:56.662Z,4.37
2018-08-24T12:49:31.806Z,13.00
2018-08-24T12:52:02.577Z,4.17
2018-08-24T12:54:33.248Z,5.60
2018-08-24T12:57:04.279Z,5.72
2018-08-24T12:59:35.463Z,8.10
2018-08-24T13:02:06.420Z,9.98
2018-08-24T13:04:37.407Z,6.20
2018-08-24T13:07:08.174Z,8.05
2018-08-24T13:09:38.836Z,8.05
2018-08-24T13:12:09.554Z,6.87
2018-08-24T13:14:40.098Z,7.37
2018-08-24T13:17:11.948Z,4.58
2018-08-24T13:19:41.719Z,7.15
2018-08-24T13:22:11.536Z,5.90
2018-08-24T13:24:41.622Z,4.97
2018-08-24T13:27:11.492Z,5.05
2018-08-24T13:29:41.287Z,8.70
2018-08-24T13:32:11.354Z,20.52
2018-08-24T13:34:42.193Z,8.58
2018-08-24T13:37:12.972Z,4.40
2018-08-24T13:39:43.635Z,4.35
2018-08-24T13:42:14.352Z,9.58
2018-08-24T13:44:44.438Z,8.38
2018-08-24T13:47:15.544Z,4.05
2018-08-24T13:49:46.201Z,7.62
2018-08-24T13:52:16.278Z,5.05
2018-08-24T13:54:46.403Z,6.53
2018-08-24T13:57:17.134Z,4.87
2018-08-24T13:59:48.232Z,4.87
2018-08-24T14:02:18.845Z,5.03
2018-08-24T14:04:50.492Z,5.28
2018-08-24T14:07:21.228Z,4.78
2018-08-24T14:09:51.633Z,5.80
2018-08-24T14:12:22.360Z,4.90
2018-08-24T14:14:53.069Z,6.08
2018-08-24T14:17:24.077Z,8.40
2018-08-24T14:19:54.844Z,6.33
2018-08-24T14:22:25.551Z,8.08
2018-08-24T14:24:56.916Z,4.78
2018-08-24T14:27:27.699Z,4.20
2018-08-24T14:29:58.415Z,4.03
2018-08-24T14:32:29.408Z,5.15
2018-08-24T14:35:00.179Z,4.25
2018-08-24T14:37:30.841Z,5.58
2018-08-24T14:40:01.901Z,4.55
2018-08-24T14:42:32.010Z,3.47
2018-08-24T14:45:03.630Z,4.95
2018-08-24T14:47:34.205Z,4.83
2018-08-24T14:50:04.539Z,9.53
2018-08-24T14:52:34.596Z,3.95
2018-08-24T14:55:04.875Z,4.70
2018-08-24T14:57:34.871Z,5.83
2018-08-24T15:00:04.830Z,5.50
2018-08-24T15:02:35.151Z,9.13
2018-08-24T15:05:06.015Z,9.40
2018-08-24T15:07:35.792Z,11.93
2018-08-24T15:10:05.656Z,12.43
2018-08-24T15:12:36.570Z,10.05
2018-08-24T15:15:06.344Z,33.83
2018-08-24T15:17:36.210Z,20.35
2018-08-24T15:20:06.942Z,10.40
2018-08-24T15:22:37.456Z,8.83
2018-08-24T15:25:07.861Z,9.78
2018-08-24T15:27:38.665Z,10.48
2018-08-24T15:30:08.625Z,9.63
2018-08-24T15:32:38.926Z,9.63
2018-08-24T15:35:09.459Z,13.15
2018-08-24T15:37:41.601Z,8.30
2018-08-24T15:40:11.484Z,7.97
2018-08-24T15:42:41.419Z,9.28
2018-08-24T15:45:11.915Z,6.17
2018-08-24T15:47:42.269Z,7.37
2018-08-24T15:50:12.953Z,10.10
2018-08-24T15:52:44.316Z,5.08
2018-08-24T15:55:15.295Z,13.90
2018-08-24T15:57:45.702Z,15.28
2018-08-24T16:00:16.481Z,14.58
2018-08-24T16:02:46.825Z,15.68
2018-08-24T16:05:16.953Z,11.90
2018-08-24T16:07:47.674Z,16.30
2018-08-24T16:10:18.838Z,16.93
2018-08-24T16:12:48.497Z,11.63
2018-08-24T16:15:18.707Z,14.75
2018-08-24T16:17:53.668Z,10.00
2018-08-24T16:20:23.330Z,11.05
2018-08-24T16:22:53.787Z,13.25
2018-08-24T16:25:23.633Z,14.33
2018-08-24T16:27:54.900Z,13.35
2018-08-24T16:30:25.307Z,11.93
2018-08-24T16:32:56.049Z,11.73
2018-08-24T16:35:27.061Z,16.23
2018-08-24T16:37:57.832Z,12.70
2018-08-24T16:40:28.817Z,15.03
2018-08-24T16:42:59.281Z,13.00
2018-08-24T16:45:30.268Z,11.18
2018-08-24T16:48:01.119Z,14.28
2018-08-24T16:50:31.761Z,12.07
2018-08-24T16:53:03.386Z,11.73
2018-08-24T16:55:34.066Z,13.05
2018-08-24T16:58:04.963Z,11.75
2018-08-24T17:00:35.875Z,13.05
2018-08-24T17:03:06.318Z,14.63
2018-08-24T17:05:36.998Z,12.05
2018-08-24T17:08:08.349Z,13.03
2018-08-24T17:10:39.391Z,12.68
2018-08-24T17:13:10.108Z,15.08
2018-08-24T17:15:40.943Z,18.37
2018-08-24T17:18:11.909Z,14.83
2018-08-24T17:20:43.270Z,14.45
2018-08-24T17:23:14.469Z,13.60
2018-08-24T17:25:44.909Z,13.98
2018-08-24T17:28:15.949Z,17.02
2018-08-24T17:30:46.198Z,17.90
2018-08-24T17:33:17.522Z,17.90
2018-08-24T17:35:47.973Z,19.32
2018-08-24T17:38:19.215Z,16.40
2018-08-24T17:40:50.001Z,19.37
2018-08-24T17:43:20.673Z,18.73
2018-08-24T17:45:51.759Z,18.07
2018-08-24T17:48:22.803Z,19.07
2018-08-24T17:50:54.159Z,21.45
2018-08-24T17:53:25.199Z,20.60
2018-08-24T17:55:56.566Z,20.48
2018-08-24T17:58:27.287Z,23.15
2018-08-24T18:00:57.998Z,24.05
2018-08-24T18:03:28.719Z,25.25
2018-08-24T18:05:58.799Z,23.27
2018-08-24T18:08:29.142Z,28.15
2018-08-24T18:10:59.868Z,25.35
2018-08-24T18:13:30.962Z,23.50
2018-08-24T18:16:01.951Z,23.62
2018-08-24T18:18:32.718Z,25.37
2018-08-24T18:21:02.800Z,22.82
2018-08-24T18:23:33.468Z,21.25
2018-08-24T18:26:04.510Z,24.15
2018-08-24T18:28:34.639Z,22.58
2018-08-24T18:31:04.928Z,29.90
2018-08-24T18:33:35.379Z,34.30
2018-08-24T18:36:05.732Z,29.67
2018-08-24T18:38:36.146Z,25.10
2018-08-24T18:41:06.858Z,27.42
2018-08-24T18:43:37.240Z,29.37
2018-08-24T18:46:08.600Z,29.12
2018-08-24T18:48:39.328Z,25.75
2018-08-24T18:51:09.771Z,27.20
2018-08-24T18:53:43.939Z,26.68
2018-08-24T18:56:16.716Z,37.30
2018-08-24T18:58:52.525Z,31.02
2018-08-24T19:01:26.651Z,30.30
2018-08-24T19:03:59.113Z,38.10
2018-08-24T19:06:35.484Z,34.05
2018-08-24T19:09:08.262Z,32.48
2018-08-24T19:11:43.642Z,35.30
2018-08-24T19:14:18.500Z,35.58
2018-08-24T19:16:50.401Z,39.95
2018-08-24T19:19:27.075Z,39.03
2018-08-24T19:22:00.770Z,43.78
2018-08-24T19:24:34.588Z,34.78
2018-08-24T19:27:06.939Z,29.15
2018-08-24T19:29:42.901Z,29.98
2018-08-24T19:32:15.270Z,28.77
2018-08-24T19:34:47.220Z,21.57
2018-08-24T19:37:17.832Z,25.23
2018-08-24T19:39:55.277Z,22.32
2018-08-24T19:42:28.425Z,23.00
2018-08-24T19:45:01.140Z,25.37
2018-08-24T19:47:37.045Z,27.70
2018-08-24T19:50:10.837Z,24.50
2018-08-24T19:52:42.213Z,24.18
2018-08-24T19:55:14.101Z,27.73
2018-08-24T19:57:51.998Z,24.23
2018-08-24T20:00:24.091Z,24.82
2018-08-24T20:02:55.582Z,23.98
2018-08-24T20:05:28.692Z,26.62
2018-08-24T20:09:06.340Z,25.15
2018-08-24T20:11:38.668Z,23.80
2018-08-24T20:14:12.264Z,22.67
2018-08-24T20:16:49.755Z,23.30
2018-08-24T20:19:21.537Z,29.18
2018-08-24T20:21:52.887Z,23.60
2018-08-24T20:24:22.401Z,26.35
2018-08-24T20:26:52.195Z,25.72
2018-08-24T20:29:23.167Z,27.62
2018-08-24T20:31:53.607Z,29.25
2018-08-24T20:34:24.347Z,24.20
2018-08-24T20:36:55.377Z,26.15
2018-08-24T20:39:25.873Z,25.68
2018-08-24T20:41:57.198Z,26.00
2018-08-24T20:44:28.502Z,27.55
2018-08-24T20:46:58.949Z,27.27
2018-08-24T20:49:30.379Z,25.82
2018-08-24T20:52:01.942Z,26.85
2018-08-24T20:54:33.302Z,25.57
2018-08-24T20:57:04.037Z,27.45
2018-08-24T20:59:35.080Z,24.92
2018-08-24T21:02:06.093Z,29.55
2018-08-24T21:04:37.461Z,27.77
2018-08-24T21:07:09.130Z,27.67
2018-08-24T21:09:39.556Z,33.15
2018-08-24T21:12:10.315Z,30.25
2018-08-24T21:14:40.941Z,30.48
2018-08-24T21:17:10.715Z,28.87
2018-08-24T21:19:41.760Z,27.37
2018-08-24T21:22:13.161Z,24.70
2018-08-24T21:24:43.445Z,25.17
2018-08-24T21:27:13.207Z,30.02
2018-08-24T21:29:43.290Z,25.45
2018-08-24T21:32:13.186Z,25.88
2018-08-24T21:34:43.243Z,30.90
2018-08-24T21:37:13.197Z,28.20
2018-08-24T21:39:42.980Z,29.57
2018-08-24T21:42:12.871Z,27.27
2018-08-24T21:44:43.269Z,27.22
2018-08-24T21:47:13.029Z,26.80
2018-08-24T21:49:42.960Z,29.85
2018-08-24T21:52:12.718Z,26.70
2018-08-24T21:54:42.626Z,29.60
2018-08-24T21:57:12.355Z,24.23
2018-08-24T21:59:42.888Z,22.70
2018-08-24T22:02:12.550Z,20.57
2018-08-24T22:04:43.595Z,22.02
2018-08-24T22:07:14.894Z,18.77
2018-08-24T22:09:46.255Z,17.45
2018-08-24T22:12:18.307Z,21.52
2018-08-24T22:14:50.310Z,17.42
2018-08-24T22:17:21.673Z,18.42
2018-08-24T22:19:51.701Z,15.93
2018-08-24T22:22:22.102Z,16.35
2018-08-24T22:24:52.814Z,16.90
2018-08-24T22:27:23.855Z,21.90
2018-08-24T22:29:54.980Z,15.85
2018-08-24T22:32:25.988Z,17.00
2018-08-24T22:34:56.333Z,19.02
2018-08-24T22:37:26.146Z,14.13
2018-08-24T22:39:56.228Z,13.65
2018-08-24T22:42:25.987Z,14.20
2018-08-24T22:44:56.066Z,15.80
2018-08-24T22:47:26.741Z,15.15
2018-08-24T22:49:56.549Z,17.60
2018-08-24T22:52:26.308Z,13.55
2018-08-24T22:54:56.065Z,15.85
2018-08-24T22:57:26.795Z,15.32
2018-08-24T22:59:56.870Z,14.33
2018-08-24T23:02:27.594Z,18.75
2018-08-24T23:04:57.529Z,14.78
2018-08-24T23:07:27.946Z,13.93
2018-08-24T23:09:58.852Z,14.35
2018-08-24T23:12:30.149Z,15.25
2018-08-24T23:14:59.650Z,15.65
2018-08-24T23:17:30.568Z,15.00
2018-08-24T23:20:00.590Z,14.45
2018-08-24T23:22:30.469Z,14.78
2018-08-24T23:25:00.234Z,14.10
2018-08-24T23:27:30.160Z,18.90
2018-08-24T23:30:02.305Z,14.45
2018-08-24T23:32:34.314Z,15.88
2018-08-24T23:35:04.626Z,15.93
2018-08-24T23:37:35.768Z,22.62
2018-08-24T23:40:06.294Z,15.32
2018-08-24T23:42:35.744Z,14.53
2018-08-24T23:45:07.528Z,16.62
2018-08-24T23:47:37.670Z,17.62
2018-08-24T23:50:09.347Z,16.45
2018-08-24T23:52:39.698Z,23.80
2018-08-24T23:55:10.465Z,19.12
2018-08-24T23:57:40.809Z,19.25
